createdAt,value
2024-03-12T00:00:19.595Z,4.71
2024-03-12T00:15:12.031Z,4.72
2024-03-12T00:30:09.532Z,4.62
2024-03-12T00:45:07.077Z,4.51
2024-03-12T01:00:04.455Z,4.37
2024-03-12T01:15:01.913Z,4.27
2024-03-12T01:33:00.417Z,4.16
2024-03-12T01:47:57.852Z,4.02
2024-03-12T02:02:55.195Z,3.82
2024-03-12T02:17:53.040Z,3.70
2024-03-12T02:32:50.456Z,3.66
2024-03-12T02:47:48.013Z,3.71
2024-03-12T03:02:45.415Z,3.79
2024-03-12T03:17:42.507Z,3.94
2024-03-12T03:32:39.937Z,4.13
2024-03-12T03:47:37.336Z,4.13
2024-03-12T04:02:34.776Z,4.05
2024-03-12T04:17:32.323Z,3.93
2024-03-12T04:32:34.845Z,3.86
2024-03-12T04:47:27.170Z,3.74
2024-03-12T05:17:22.087Z,3.46
2024-03-12T05:32:19.574Z,3.45
2024-03-12T05:47:16.993Z,3.49
2024-03-12T06:02:14.462Z,3.67
2024-03-12T06:17:12.049Z,4.22
2024-03-12T06:32:09.446Z,4.52
2024-03-12T06:47:06.962Z,4.88
2024-03-12T07:02:04.203Z,5.34
2024-03-12T07:17:01.745Z,5.98
2024-03-12T07:31:59.265Z,6.66
2024-03-12T07:46:56.732Z,7.30
2024-03-12T08:01:54.340Z,7.96
2024-03-12T08:16:51.872Z,8.48
2024-03-12T08:46:46.740Z,9.20
2024-03-12T09:01:44.338Z,9.42
2024-03-12T09:16:41.945Z,9.49
2024-03-12T09:31:39.792Z,9.57
2024-03-12T09:46:37.009Z,9.72
2024-03-12T10:01:34.458Z,9.92
2024-03-12T10:31:29.509Z,10.49
2024-03-12T10:46:27.030Z,10.87
2024-03-12T11:01:24.544Z,11.07
2024-03-12T11:16:22.276Z,11.32
2024-03-12T11:31:19.558Z,11.31
2024-03-12T11:46:17.429Z,11.38
2024-03-12T12:01:15.036Z,11.43
2024-03-12T12:16:12.655Z,11.50
2024-03-12T12:31:10.332Z,11.77
2024-03-12T12:46:07.950Z,11.78
2024-03-12T13:01:05.635Z,12.10
2024-03-12T13:16:03.101Z,11.91
2024-03-12T13:31:00.850Z,11.96
2024-03-12T13:45:58.454Z,12.10
2024-03-12T14:00:57.929Z,12.13
2024-03-12T14:15:53.642Z,11.84
2024-03-12T14:30:51.358Z,11.28
2024-03-12T14:45:53.975Z,10.95
2024-03-12T15:00:46.628Z,10.81
2024-03-12T15:15:44.266Z,10.83
2024-03-12T15:30:43.375Z,10.74
2024-03-12T15:45:39.637Z,10.59
2024-03-12T16:00:38.880Z,10.20
2024-03-12T16:15:34.971Z,9.81
2024-03-12T16:30:32.365Z,9.54
2024-03-12T16:45:29.932Z,9.28
2024-03-12T17:00:27.322Z,8.78
2024-03-12T17:15:24.935Z,8.50
2024-03-12T17:30:22.365Z,8.48
2024-03-12T17:45:19.852Z,8.46
2024-03-12T18:00:17.422Z,8.44
2024-03-12T18:15:20.148Z,8.38
2024-03-12T18:30:12.581Z,8.35
2024-03-12T18:45:10.127Z,8.31
2024-03-12T19:00:12.718Z,8.16
2024-03-12T19:15:05.162Z,8.03
2024-03-12T19:30:02.709Z,7.89
2024-03-12T19:48:01.468Z,7.71
2024-03-12T20:02:58.924Z,7.55
2024-03-12T20:17:56.364Z,7.40
2024-03-12T20:32:53.937Z,7.29
2024-03-12T20:47:51.492Z,7.19
2024-03-12T21:02:49.062Z,7.15
2024-03-12T21:17:46.566Z,7.06
2024-03-12T21:32:43.836Z,6.82
2024-03-12T21:47:41.645Z,6.55
2024-03-12T22:02:38.930Z,6.16
2024-03-12T22:17:36.406Z,5.68
2024-03-12T22:32:33.954Z,4.95
2024-03-12T22:47:31.523Z,4.34
2024-03-12T23:02:32.202Z,4.06
2024-03-12T23:17:31.467Z,4.22
2024-03-12T23:32:23.816Z,4.46
2024-03-12T23:47:21.416Z,4.74
